• Join FlightAware (Why Join?)
  • Login
  • US Flag 
03:24AM EDT


 

Airport Tracker/Info


-or-


 

Live Flight TrackerFlight Track Log ✈ DAL2006 ✈ 11-May-2013 ✈ KMSY - KLGA

Flight Track Log - Related Links

Times and Time Zones

All times are in EDT time to prevent confusion due to time zone crossing. See the DAL2006 flight status page for this flight to view local times or setup timezone preferences in your user account.

Time Position Orientation Groundspeed Altitude Reporting Facility
EDT Latitude Longitude Course Direction KTS MPH feet Rate Location/Type
02:55PM 29.9883 -90.2439 49° Northeast 168 193 800  Level Houston Center
02:56PM 29.9808 -90.2056 103° East 201 231 1,800 1,020 Climbing Houston Center
02:56PM 29.9733 -90.1636 102° East 219 252 2,300 1,680 Climbing Houston Center
02:57PM 29.9886 -90.1167 69° East 295 339 3,700 2,400 Climbing Houston Center
02:57PM 30.0169 -90.0950 34° Northeast 267 307 4,800 2,700 Climbing Houston Center
02:58PM 30.2295 -89.9121 50° Northeast  Level FlightAware Approximate
02:58PM 30.0558 -90.0658 33° Northeast 300 345 6,400  Level Houston Center
02:58PM 30.0992 -90.0325 34° Northeast 289 333 8,200 2,280 Climbing Houston Center
02:59PM 30.3083 -89.7959 52° Northeast  Level FlightAware Approximate
02:59PM 30.1689 -89.9733 36° Northeast 304 350 10,300  Level Houston Center
03:00PM 30.3890 -89.6813 49° Northeast  Level FlightAware Approximate
03:00PM 30.2500 -89.9078 35° Northeast 343 395 11,700  Level Houston Center
03:02PM 30.3411 -89.8353 34° Northeast 380 437 13,900 2,040 Climbing Houston Center
03:03PM 30.4386 -89.7589 34° Northeast 398 458 15,900 1,680 Climbing Houston Center
03:04PM 30.5378 -89.6842 33° Northeast 416 479 17,400 1,380 Climbing Houston Center
03:05PM 30.6408 -89.6092 32° Northeast 434 499 18,800 1,560 Climbing Houston Center
03:06PM 30.7483 -89.5317 32° Northeast 450 518 20,600 1,500 Climbing Houston Center
03:07PM 30.8367 -89.4211 47° Northeast 475 547 21,900 1,260 Climbing Houston Center
03:08PM 30.9008 -89.2828 62° Northeast 486 559 23,200 1,200 Climbing Houston Center
03:09PM 30.9650 -89.1406 62° Northeast 496 571 24,400 840 Climbing Houston Center
03:10PM 31.0442 -88.9667 62° Northeast 505 581 25,000 240 Climbing Houston Center
03:11PM 31.1133 -88.8197 61° Northeast 511 588 25,000 180 Level Houston Center
03:12PM 31.1811 -88.6728 62° Northeast 511 588 25,400 540 Climbing Houston Center
03:13PM 31.2500 -88.5228 62° Northeast 519 597 26,200 780 Climbing Houston Center
03:14PM 31.3203 -88.3678 62° Northeast 531 611 27,000 420 Climbing Houston Center
03:15PM 31.3764 -88.2511 61° Northeast 511 588 27,000 -60 Level Atlanta Center
03:16PM 31.4483 -88.0939 62° Northeast 505 581 26,900  Descending Atlanta Center
03:17PM 31.5117 -87.9458 63° Northeast 505 581 27,000  Climbing Atlanta Center
03:18PM 31.5786 -87.8025 61° Northeast 505 581 27,000  Level Atlanta Center
03:19PM 31.6414 -87.6586 63° Northeast 500 575 27,000  Level Atlanta Center
03:20PM 31.7083 -87.5125 62° Northeast 500 575 27,000  Level Atlanta Center
03:21PM 31.7750 -87.3636 62° Northeast 505 581 27,000  Level Atlanta Center
03:22PM 31.8264 -87.2311 65° Northeast 498 573 27,000  Level Atlanta Center
03:23PM 31.8908 -87.0817 63° Northeast 498 573 27,000  Level Atlanta Center
03:24PM 31.9547 -86.9369 62° Northeast 503 579 27,000 -60 Level Atlanta Center
03:25PM 32.0208 -86.7897 62° Northeast 503 579 26,900 -960 Descending Atlanta Center
03:26PM 32.0931 -86.6350 61° Northeast 497 572 25,100 -960 Descending Atlanta Center
03:27PM 32.1544 -86.4897 63° Northeast 497 572 25,000 -60 Descending Atlanta Center
03:28PM 32.2069 -86.3586 65° Northeast 487 560 25,000  Level Atlanta Center
03:29PM 32.2761 -86.2228 59° Northeast 481 554 25,000  Level Atlanta Center
03:30PM 32.3600 -86.0872 54° Northeast 487 560 25,000  Level Atlanta Center
03:31PM 32.4372 -85.9561 55° Northeast 493 567 25,000  Level Atlanta Center
03:32PM 32.5250 -85.8078 55° Northeast 488 562 25,000  Level Atlanta Center
03:33PM 32.6042 -85.6761 54° Northeast 488 562 25,000  Level Atlanta Center
03:34PM 32.6831 -85.5442 55° Northeast 488 562 25,000  Level Atlanta Center
03:35PM 32.7597 -85.4122 55° Northeast 488 562 25,000  Level Atlanta Center
03:36PM 32.8342 -85.2775 57° Northeast 488 562 25,000  Level Atlanta Center
03:37PM 32.9128 -85.1450 55° Northeast 488 562 25,000  Level Atlanta Center
03:38PM 32.9825 -85.0319 54° Northeast 474 545 25,000  Level Atlanta Center
03:39PM 33.0564 -84.8989 56° Northeast 479 551 25,000  Level Atlanta Center
03:40PM 33.1367 -84.7656 54° Northeast 489 563 25,000  Level Atlanta Center
03:41PM 33.2125 -84.6297 56° Northeast 489 563 25,000  Level Atlanta Center
03:42PM 33.2903 -84.4961 55° Northeast 489 563 25,000  Level Atlanta Center
03:43PM 33.3658 -84.3597 56° Northeast 489 563 25,000  Level Atlanta Center
03:44PM 33.4433 -84.2231 56° Northeast 489 563 25,000  Level Atlanta Center
03:45PM 33.5208 -84.0861 56° Northeast 489 563 25,100 660 Climbing Atlanta Center
03:46PM 33.5958 -83.9539 56° Northeast 489 563 26,400 960 Climbing Atlanta Center
03:47PM 33.6750 -83.8142 56° Northeast 495 570 27,100 720 Climbing Atlanta Center
03:48PM 33.7561 -83.6714 56° Northeast 507 583 27,900 900 Climbing Atlanta Center
03:49PM 33.8433 -83.5111 57° Northeast 507 583 29,000 840 Climbing Atlanta Center
03:50PM 33.9258 -83.3628 56° Northeast 518 596 29,600 480 Climbing Atlanta Center
03:51PM 34.0064 -83.2144 57° Northeast 524 603 30,000 180 Climbing Atlanta Center
03:52PM 34.0867 -83.0631 57° Northeast 535 616 30,000 180 Level Atlanta Center
03:53PM 34.1669 -82.9089 58° Northeast 535 616 30,400 660 Climbing Atlanta Center
03:54PM 34.2467 -82.7547 58° Northeast 535 616 31,400 840 Climbing Atlanta Center
03:55PM 34.3306 -82.6000 57° Northeast 541 623 32,100 780 Climbing Atlanta Center
03:56PM 34.4081 -82.4475 58° Northeast 541 623 33,000 900 Climbing Atlanta Center
03:57PM 34.4872 -82.2897 59° Northeast 541 623 33,900 840 Climbing Atlanta Center
03:58PM 34.5683 -82.1342 58° Northeast 541 623 34,700 540 Climbing Atlanta Center
03:59PM 34.6450 -81.9761 59° Northeast 546 628 35,000 180 Climbing Atlanta Center
04:00PM 34.7139 -81.8428 58° Northeast 539 620 35,100 300 Climbing Atlanta Center
04:01PM 34.7944 -81.6889 57° Northeast 539 620 35,700 600 Climbing Atlanta Center
04:02PM 34.8725 -81.5272 59° Northeast 539 620 36,300 -120 Climbing Atlanta Center
04:03PM 34.9528 -81.3728 58° Northeast 545 627 35,500 -1,620 Descending Atlanta Center
04:04PM 35.0286 -81.2158 59° Northeast 545 627 33,100 -2,280 Descending Atlanta Center
04:05PM 35.1042 -81.0633 59° Northeast 540 621 31,000 -2,100 Descending Atlanta Center
04:06PM 35.1797 -80.9133 58° Northeast 522 601 29,000 -2,220 Descending Atlanta Center
04:07PM 35.2492 -80.7708 59° Northeast 503 579 26,600 -2,100 Descending Atlanta Center
04:08PM 35.3183 -80.6331 58° Northeast 488 562 24,800 -1,800 Descending Atlanta Center
04:09PM 35.3836 -80.5006 59° Northeast 464 534 23,000 -600 Descending Atlanta Center
04:11PM 35.5267 -80.2039 59° Northeast 462 532 23,000  Level Washington Center
04:12PM 35.5903 -80.0694 60° Northeast 457 526 23,000  Level Washington Center
04:13PM 35.6556 -79.9403 58° Northeast 451 519 23,000  Level Washington Center
04:14PM 35.7189 -79.8056 60° Northeast 446 513 23,000  Level Washington Center
04:15PM 35.7861 -79.6683 59° Northeast 456 525 23,000  Level Washington Center
04:16PM 35.8617 -79.5364 55° Northeast 443 510 23,000  Level Washington Center
04:17PM 35.9211 -79.4394 53° Northeast 436 502 23,000  Level Washington Center
04:18PM 36.0044 -79.3125 51° Northeast 436 502 23,000  Level Washington Center
04:19PM 36.0789 -79.1925 52° Northeast 436 502 23,000  Level Washington Center
04:20PM 36.1514 -79.0725 53° Northeast 436 502 23,000  Level Washington Center
04:21PM 36.2258 -78.9522 52° Northeast 431 496 23,000  Level Washington Center
04:22PM 36.3022 -78.8317 52° Northeast 431 496 23,000  Level Washington Center
04:23PM 36.3764 -78.7108 53° Northeast 431 496 23,000  Level Washington Center
04:24PM 36.4547 -78.5825 53° Northeast 431 496 23,000  Level Washington Center
04:25PM 36.5178 -78.4789 53° Northeast 408 470 23,000  Level Washington Center
04:26PM 36.5828 -78.3700 53° Northeast 396 456 23,000  Level Washington Center
04:27PM 36.6478 -78.2636 53° Northeast 391 450 23,000 540 Level Washington Center
04:28PM 36.7025 -78.1514 59° Northeast 381 438 24,100 1,380 Climbing Washington Center
04:29PM 36.7572 -78.0289 61° Northeast 381 438 25,800 1,380 Climbing Washington Center
04:30PM 36.8097 -77.9086 61° Northeast 387 445 26,900 540 Climbing Washington Center
04:31PM 36.8622 -77.7828 62° Northeast 392 451 27,000  Climbing Washington Center
04:32PM 36.9164 -77.6572 62° Northeast 398 458 27,000  Level Washington Center
04:33PM 36.9686 -77.5339 62° Northeast 398 458 27,000  Level Washington Center
04:34PM 37.0247 -77.4103 60° Northeast 403 464 27,000  Level Washington Center
04:35PM 37.0789 -77.2867 61° Northeast 403 464 27,000 240 Level Washington Center
04:36PM 37.1344 -77.1836 56° Northeast 403 464 27,600 480 Climbing Washington Center
04:37PM 37.2475 -77.1417 16° North 367 422 28,000 180 Climbing Washington Center
04:38PM 37.3503 -77.1150 12° North 361 415 28,000  Level Washington Center
04:39PM 37.4286 -77.1742 329° Northwest 323 372 28,000  Level Washington Center
04:40PM 37.4314 -77.2736 272° West 245 282 28,000  Level Washington Center
04:41PM 37.3722 -77.3322 218° Southwest 222 255 28,000  Level Washington Center
04:42PM 37.2906 -77.3539 192° South 237 273 28,000  Level Washington Center
04:43PM 37.2067 -77.3781 193° South 277 319 28,000 240 Level Washington Center
04:44PM 37.1217 -77.3475 164° South 303 349 28,500 600 Climbing Washington Center
04:45PM 37.1069 -77.2117 98° East 277 319 29,200 840 Climbing Washington Center
04:46PM 37.2017 -77.1486 28° Northeast 234 269 30,200 840 Climbing Washington Center
04:47PM 37.3250 -77.1197 11° North 296 341 31,000 360 Climbing Washington Center
04:48PM 37.4167 -77.1372 351° North 325 374 31,000  Level Washington Center
04:49PM 37.4614 -77.2244 303° West 301 346 31,000  Level Washington Center
04:50PM 37.4475 -77.3183 259° West 242 278 31,000  Level Washington Center
04:51PM 37.3861 -77.3875 222° Southwest 233 268 31,000  Level Washington Center
04:52PM 37.2900 -77.4008 186° South 264 304 31,000  Level Washington Center
04:53PM 37.1947 -77.3386 153° Southeast 315 362 31,000  Level Washington Center
04:54PM 37.1469 -77.1786 110° East 337 388 31,000  Level Washington Center
04:55PM 37.1864 -77.0361 71° East 342 394 31,000  Level Washington Center
04:56PM 37.2853 -76.9597 32° Northeast 336 387 31,000 -60 Level Washington Center
04:57PM 37.3903 -76.9042 23° Northeast 360 414 30,900  Descending Washington Center
04:58PM 37.4908 -76.8456 25° Northeast 383 441 31,000  Climbing Washington Center
04:59PM 37.5875 -76.7922 24° Northeast 402 463 31,000  Level Washington Center
05:00PM 37.6903 -76.7361 23° Northeast 402 463 31,000  Level Washington Center
05:01PM 37.7967 -76.7139 North 387 445 31,000  Level Washington Center
05:02PM 37.8989 -76.7128 360° North 372 428 31,000  Level Washington Center
05:03PM 38.0033 -76.7117 360° North 367 422 31,000  Level Washington Center
05:04PM 38.1075 -76.7081 North 367 422 31,000 -180 Level Washington Center
05:05PM 38.2122 -76.6725 15° North 367 422 30,700 -1,140 Descending Washington Center
05:06PM 38.3092 -76.5442 46° Northeast 405 466 28,800 -1,680 Descending Washington Center
05:07PM 38.4017 -76.4183 47° Northeast 439 505 27,400 -960 Descending Washington Center
05:08PM 38.4964 -76.2894 47° Northeast 468 539 27,000 -240 Descending Washington Center
05:09PM 38.5742 -76.1839 47° Northeast 482 555 27,000  Level Washington Center
05:10PM 38.6831 -76.0411 46° Northeast 497 572 27,000  Level Washington Center
05:11PM 38.7961 -75.9406 35° Northeast 497 572 27,000  Level Washington Center
05:12PM 38.9192 -75.8583 27° Northeast 491 565 27,000 -60 Level Washington Center
05:13PM 39.0403 -75.7733 29° Northeast 491 565 26,900  Descending Washington Center
05:14PM 39.1633 -75.6881 28° Northeast 491 565 27,000 -300 Climbing Washington Center
05:15PM 39.2822 -75.5969 31° Northeast 484 557 26,400 -780 Descending Washington Center
05:16PM 39.3717 -75.4653 49° Northeast 484 557 25,500 -1,020 Descending Washington Center
05:17PM 39.4653 -75.3361 47° Northeast 484 557 24,400 -1,740 Descending Washington Center
05:18PM 39.5608 -75.2200 43° Northeast 478 550 22,100 -2,160 Descending Washington Center
05:19PM 39.6625 -75.1278 35° Northeast 461 531 20,100 -2,220 Descending Washington Center
05:20PM 39.7728 -75.0328 33° Northeast 435 501 17,700 -2,040 Descending Washington Center
05:21PM 39.8639 -74.9536 34° Northeast 399 459 16,100 -1,680 Descending Washington Center
05:22PM 39.9508 -74.8742 35° Northeast 393 452 14,400 -1,560 Descending Washington Center
05:23PM 40.0422 -74.8164 26° Northeast 372 428 13,000 -780 Descending Washington Center
05:24PM 40.1333 -74.7667 23° Northeast 359 413 13,000 -480 Level New York TRACON
05:25PM 40.2167 -74.7000 31° Northeast 359 413 12,100 -960 Descending New York TRACON
05:26PM 40.2833 -74.6333 37° Northeast 356 410 11,200 -1,020 Descending New York TRACON
05:27PM 40.3500 -74.5167 53° Northeast 345 397 10,100 -1,020 Descending New York TRACON
05:28PM 40.4000 -74.4167 57° Northeast 328 377 9,100 -780 Descending New York TRACON
05:29PM 40.4500 -74.3333 52° Northeast 329 379 8,700 -780 Descending New York TRACON
05:30PM 40.4833 -74.2333 66° East 320 368 7,700 -1,260 Descending New York TRACON
05:31PM 40.5500 -74.1500 44° Northeast 311 358 6,200 -1,500 Descending New York TRACON
05:32PM 40.6167 -74.1000 30° Northeast 302 348 4,700 -1,080 Descending New York TRACON
05:33PM 40.7000 -74.0333 31° Northeast 294 338 4,000 -360 Descending New York TRACON
05:34PM 40.7667 -73.9833 30° Northeast 293 337 4,000  Level New York TRACON
05:35PM 40.8167 -73.9333 37° Northeast 250 288 4,000  Level New York TRACON
05:36PM 40.8833 -73.9000 21° North 215 247 4,000  Level New York TRACON
05:37PM 40.9333 -73.9000 360° North 202 232 4,000  Level New York TRACON
05:38PM 40.9833 -73.8667 27° Northeast 209 241 4,000  Level New York TRACON
05:39PM 40.9833 -73.8000 90° East 214 246 4,000 -540 Level New York TRACON
05:40PM 40.9667 -73.7500 114° Southeast 184 212 3,000 -1,020 Descending New York TRACON